Time;durP1;ratioP1;P1;durP2;ratioP2;P2;SDS_P1;SDS_P2;PMS_P1;PMS_P2;Temp;Humidity;BMP_temperature;BMP_pressure;BME280_temperature;BME280_humidity;BME280_pressure;Samples;Min_cycle;Max_cycle;Signal;HPM_P1;HPM_P2
2021/04/17 00:01:34;;;;;;;17.02;8.05;;;7.40;99.90;;;;;;5097414;28;20172;-64
2021/04/17 00:04:00;;;;;;;12.80;6.03;;;7.40;99.90;;;;;;5097291;28;20207;-64
2021/04/17 00:06:26;;;;;;;8.75;5.95;;;7.40;99.90;;;;;;5097089;28;20230;-64
2021/04/17 00:08:52;;;;;;;13.47;7.87;;;7.30;99.90;;;;;;5115480;28;20195;-64
2021/04/17 00:11:18;;;;;;;14.17;8.53;;;7.40;99.90;;;;;;5115502;28;20254;-66
2021/04/17 00:13:43;;;;;;;15.63;9.47;;;7.40;99.90;;;;;;5115256;28;20416;-67
2021/04/17 00:16:09;;;;;;;15.70;9.40;;;7.40;99.90;;;;;;5115360;28;20182;-65
2021/04/17 00:18:35;;;;;;;17.67;8.80;;;7.40;99.90;;;;;;5115253;28;20298;-66
2021/04/17 00:21:00;;;;;;;20.07;12.00;;;7.30;99.90;;;;;;5115233;28;20382;-64
2021/04/17 00:23:26;;;;;;;12.67;8.53;;;7.40;99.90;;;;;;5115238;28;20332;-64
2021/04/17 00:25:52;;;;;;;16.80;9.77;;;7.40;99.90;;;;;;5096865;28;20233;-68
2021/04/17 00:28:17;;;;;;;12.47;7.87;;;7.40;99.90;;;;;;5115566;28;20203;-66
2021/04/17 00:30:43;;;;;;;10.53;7.70;;;7.40;99.90;;;;;;5096842;28;20179;-65
2021/04/17 00:33:08;;;;;;;10.70;6.10;;;7.50;99.90;;;;;;5115461;28;20227;-67
2021/04/17 00:35:34;;;;;;;10.50;7.50;;;7.50;99.90;;;;;;5096758;28;20184;-67
2021/04/17 00:38:00;;;;;;;13.53;8.00;;;7.60;99.90;;;;;;5115421;28;20211;-67
2021/04/17 00:40:26;;;;;;;12.53;7.73;;;7.50;99.90;;;;;;5114919;28;20645;-66
2021/04/17 00:42:51;;;;;;;8.02;5.78;;;7.50;99.90;;;;;;5115219;28;20196;-65
2021/04/17 00:45:17;;;;;;;8.50;6.70;;;7.60;99.90;;;;;;5114783;28;20680;-65
2021/04/17 00:47:43;;;;;;;10.07;6.13;;;7.60;99.90;;;;;;5115021;28;20206;-67
2021/04/17 00:50:09;;;;;;;9.30;6.17;;;7.60;99.90;;;;;;5114452;28;20172;-68
2021/04/17 00:52:35;;;;;;;11.13;6.63;;;7.50;99.90;;;;;;5114954;28;20766;-67
2021/04/17 00:55:01;;;;;;;10.50;7.17;;;7.50;99.90;;;;;;5114670;28;20251;-67
2021/04/17 00:57:27;;;;;;;8.47;4.70;;;7.60;99.90;;;;;;5114953;28;20176;-64
2021/04/17 00:59:52;;;;;;;13.10;8.83;;;7.50;99.90;;;;;;5114539;28;20184;-67
2021/04/17 01:02:25;;;;;;;9.83;5.90;;;7.60;99.90;;;;;;5114478;28;20664;-69
2021/04/17 01:04:52;;;;;;;11.90;7.53;;;7.50;99.90;;;;;;5114362;28;20513;-68
2021/04/17 01:07:27;;;;;;;11.18;7.15;;;7.40;99.90;;;;;;5114406;28;20195;-65
2021/04/17 01:09:59;;;;;;;10.50;7.50;;;7.50;99.90;;;;;;5114388;28;20187;-68
2021/04/17 01:12:29;;;;;;;7.30;6.35;;;7.50;99.90;;;;;;5114734;28;20175;-67
2021/04/17 01:14:56;;;;;;;8.02;5.50;;;7.50;99.90;;;;;;5114346;28;20160;-68
2021/04/17 01:17:23;;;;;;;8.32;5.82;;;7.40;99.90;;;;;;5096061;28;20238;-64
2021/04/17 01:20:17;;;;;;;12.80;6.75;;;7.40;99.90;;;;;;5114306;28;20714;-65
2021/04/17 01:22:56;;;;;;;13.77;7.28;;;7.40;99.90;;;;;;5114598;28;20191;-67
2021/04/17 01:25:23;;;;;;;7.82;4.97;;;7.50;99.90;;;;;;5114289;28;20199;-64
2021/04/17 01:27:49;;;;;;;9.73;5.68;;;7.50;99.90;;;;;;5114486;28;20203;-64
2021/04/17 01:30:18;;;;;;;8.57;5.03;;;7.50;99.90;;;;;;5114241;28;20175;-67
2021/04/17 01:32:45;;;;;;;6.93;4.60;;;7.40;99.90;;;;;;5113962;28;20183;-67
2021/04/17 01:35:14;;;;;;;10.98;6.72;;;7.50;99.90;;;;;;5095961;28;20680;-65
2021/04/17 01:37:52;;;;;;;12.15;6.97;;;7.50;99.90;;;;;;5114381;28;20187;-65
2021/04/17 01:40:25;;;;;;;11.38;6.68;;;7.40;99.90;;;;;;5114174;28;20179;-67
2021/04/17 01:42:52;;;;;;;8.02;4.28;;;7.40;99.90;;;;;;5114422;28;20203;-66
2021/04/17 01:45:23;;;;;;;4.82;4.38;;;7.40;99.90;;;;;;5095671;28;20222;-65
2021/04/17 01:47:52;;;;;;;8.40;5.40;;;7.50;99.90;;;;;;5114308;28;20192;-67
2021/04/17 01:50:18;;;;;;;5.72;5.10;;;7.30;99.90;;;;;;5113795;28;20223;-68
2021/04/17 01:52:46;;;;;;;12.18;8.10;;;7.40;99.90;;;;;;5114290;28;20188;-68
2021/04/17 01:55:14;;;;;;;9.20;5.40;;;7.40;99.90;;;;;;5113922;28;20172;-68
2021/04/17 01:57:41;;;;;;;6.10;3.90;;;7.40;99.90;;;;;;5113671;28;20337;-64
2021/04/17 02:00:08;;;;;;;5.68;5.00;;;7.50;99.90;;;;;;5114168;28;20247;-66
2021/04/17 02:02:34;;;;;;;12.43;5.25;;;7.40;99.90;;;;;;5118162;28;20176;-65
2021/04/17 02:05:00;;;;;;;9.18;5.68;;;7.40;99.90;;;;;;5117846;28;20633;-68
2021/04/17 02:07:26;;;;;;;8.63;5.00;;;7.40;99.90;;;;;;5118200;28;20233;-67
2021/04/17 02:09:51;;;;;;;7.17;5.10;;;7.40;99.90;;;;;;5117743;28;20176;-65
2021/04/17 02:12:17;;;;;;;7.87;4.10;;;7.50;99.90;;;;;;5117688;28;21008;-67
2021/04/17 02:14:43;;;;;;;6.30;5.17;;;7.40;99.90;;;;;;5117697;28;20198;-66
2021/04/17 02:17:16;;;;;;;9.93;6.73;;;7.50;99.90;;;;;;5117948;28;20172;-65
2021/04/17 02:20:09;;;;;;;4.20;3.72;;;7.50;99.90;;;;;;5117623;28;20565;-68
2021/04/17 02:22:36;;;;;;;7.80;4.70;;;7.40;99.90;;;;;;5117480;28;20180;-65
2021/04/17 02:25:03;;;;;;;11.80;5.65;;;7.40;99.90;;;;;;5117523;28;20688;-64
2021/04/17 02:27:29;;;;;;;10.38;6.50;;;7.40;99.90;;;;;;5117671;28;20182;-68
2021/04/17 02:29:55;;;;;;;8.10;5.10;;;7.40;99.90;;;;;;5117455;28;20180;-64
2021/04/17 02:32:22;;;;;;;7.45;5.25;;;7.40;99.90;;;;;;5117642;28;20846;-68
2021/04/17 02:34:48;;;;;;;6.30;4.15;;;7.40;99.90;;;;;;5117422;28;20637;-65
2021/04/17 02:37:15;;;;;;;8.82;6.50;;;7.30;99.90;;;;;;5117541;28;20323;-66
2021/04/17 02:39:41;;;;;;;9.18;6.25;;;7.30;99.90;;;;;;5117240;28;20698;-65
2021/04/17 02:42:08;;;;;;;6.95;6.13;;;7.30;99.90;;;;;;5117496;28;20168;-67
2021/04/17 02:44:33;;;;;;;10.70;6.78;;;7.30;99.90;;;;;;5117218;28;20539;-66
2021/04/17 02:46:59;;;;;;;10.10;5.97;;;7.20;99.90;;;;;;5117111;28;20329;-65
2021/04/17 02:49:25;;;;;;;6.87;4.93;;;7.30;99.90;;;;;;5117124;28;20211;-67
2021/04/17 02:51:50;;;;;;;9.70;5.20;;;7.30;99.90;;;;;;5117202;28;20231;-65
2021/04/17 02:54:16;;;;;;;8.50;5.80;;;7.30;99.90;;;;;;5117092;28;20196;-65
2021/04/17 02:56:42;;;;;;;5.17;4.53;;;7.30;99.90;;;;;;5098737;28;20175;-64
2021/04/17 02:59:07;;;;;;;10.53;6.50;;;7.30;99.90;;;;;;5116890;28;20266;-64
2021/04/17 03:01:33;;;;;;;5.87;4.90;;;7.40;99.90;;;;;;5116792;28;20197;-67
2021/04/17 03:03:58;;;;;;;5.43;4.80;;;7.40;99.90;;;;;;5098425;28;20283;-64
2021/04/17 03:06:24;;;;;;;10.90;5.13;;;7.40;99.90;;;;;;5116751;28;20214;-66
2021/04/17 03:08:50;;;;;;;6.90;5.30;;;7.30;99.90;;;;;;5116677;28;20195;-67
2021/04/17 03:11:15;;;;;;;6.40;4.90;;;7.30;99.90;;;;;;5116642;28;20168;-67
2021/04/17 03:13:41;;;;;;;8.80;6.43;;;7.30;99.90;;;;;;5116582;28;20663;-65
2021/04/17 03:16:07;;;;;;;9.93;5.57;;;7.30;99.90;;;;;;5116582;28;20172;-65
2021/04/17 03:18:32;;;;;;;5.47;4.43;;;7.30;99.90;;;;;;5098153;28;20199;-64
2021/04/17 03:20:58;;;;;;;10.00;6.03;;;7.30;99.90;;;;;;5098159;28;20176;-65
2021/04/17 03:23:24;;;;;;;6.90;5.30;;;7.30;99.90;;;;;;5116379;28;20257;-65
2021/04/17 03:25:50;;;;;;;5.73;4.37;;;7.30;99.90;;;;;;5116294;28;20685;-65
2021/04/17 03:28:15;;;;;;;8.20;6.57;;;7.20;99.90;;;;;;5097920;28;20516;-64
2021/04/17 03:30:41;;;;;;;7.90;5.13;;;7.20;99.90;;;;;;5116234;28;20176;-67
2021/04/17 03:33:07;;;;;;;8.63;5.20;;;7.20;99.90;;;;;;5116664;28;20184;-66
2021/04/17 03:35:33;;;;;;;4.90;4.40;;;7.20;99.90;;;;;;5097926;28;20270;-67
2021/04/17 03:38:00;;;;;;;8.70;5.55;;;7.20;99.90;;;;;;5116427;28;20219;-67
2021/04/17 03:40:27;;;;;;;5.63;4.55;;;7.10;99.90;;;;;;5116182;28;20191;-65
2021/04/17 03:42:52;;;;;;;7.80;5.70;;;7.10;99.90;;;;;;5116419;28;20243;-65
2021/04/17 03:45:19;;;;;;;11.30;6.90;;;7.10;99.90;;;;;;5115922;28;20219;-68
2021/04/17 03:47:45;;;;;;;9.80;7.20;;;7.10;99.90;;;;;;5116263;28;20192;-67
2021/04/17 03:50:12;;;;;;;6.10;5.57;;;7.10;99.90;;;;;;5115779;28;20183;-64
2021/04/17 03:52:38;;;;;;;12.38;7.00;;;7.00;99.90;;;;;;5116083;28;20180;-64
2021/04/17 03:55:06;;;;;;;15.67;8.40;;;7.10;99.90;;;;;;5115944;28;20220;-64
2021/04/17 03:57:32;;;;;;;8.13;6.10;;;7.10;99.90;;;;;;5116003;28;20464;-65
2021/04/17 03:59:58;;;;;;;7.07;5.22;;;7.00;99.90;;;;;;5114482;28;20704;-68
2021/04/17 04:02:23;;;;;;;7.57;4.57;;;6.90;99.90;;;;;;5114394;28;20211;-64
2021/04/17 04:04:49;;;;;;;6.87;5.30;;;7.00;99.90;;;;;;5097396;28;20172;-66
2021/04/17 04:07:15;;;;;;;11.03;5.60;;;7.10;99.90;;;;;;5097279;28;20219;-67
2021/04/17 04:09:40;;;;;;;7.13;5.30;;;7.10;99.90;;;;;;5115417;28;20248;-67
2021/04/17 04:12:07;;;;;;;8.60;5.90;;;7.10;99.90;;;;;;5115866;28;20176;-65
2021/04/17 04:14:33;;;;;;;7.03;4.88;;;7.20;99.90;;;;;;5115382;28;20665;-66
2021/04/17 04:16:59;;;;;;;9.27;5.50;;;7.20;99.90;;;;;;5115625;28;20228;-65
2021/04/17 04:19:24;;;;;;;8.77;4.00;;;7.00;99.90;;;;;;5115325;28;20199;-68
2021/04/17 04:21:50;;;;;;;9.40;5.07;;;7.10;99.90;;;;;;5115430;28;20171;-67
2021/04/17 04:24:15;;;;;;;6.60;4.33;;;7.10;99.90;;;;;;5114612;28;20191;-67
2021/04/17 04:26:41;;;;;;;11.27;6.50;;;7.10;99.90;;;;;;5115208;28;20215;-65
2021/04/17 04:29:06;;;;;;;10.70;5.87;;;7.00;99.90;;;;;;5115099;28;20549;-65
2021/04/17 04:31:32;;;;;;;8.03;5.57;;;7.20;99.90;;;;;;5115270;28;20172;-67
2021/04/17 04:33:58;;;;;;;10.60;6.27;;;7.10;99.90;;;;;;5114987;28;20271;-67
2021/04/17 04:36:23;;;;;;;12.33;6.10;;;7.20;99.90;;;;;;5115122;28;20172;-66
2021/04/17 04:38:49;;;;;;;9.67;6.73;;;7.20;99.90;;;;;;5114918;28;20202;-64
2021/04/17 04:41:14;;;;;;;12.10;7.40;;;7.20;99.90;;;;;;5114998;28;20258;-67
2021/04/17 04:43:40;;;;;;;10.37;6.43;;;7.30;99.90;;;;;;5096595;28;20195;-67
2021/04/17 04:46:06;;;;;;;8.30;5.50;;;7.30;99.90;;;;;;5114744;28;20735;-65
2021/04/17 04:48:32;;;;;;;12.00;5.37;;;7.30;99.90;;;;;;5114720;28;20424;-65
2021/04/17 04:50:58;;;;;;;9.63;6.27;;;7.30;99.90;;;;;;5114245;28;20234;-66
2021/04/17 04:53:24;;;;;;;16.37;8.40;;;7.30;99.90;;;;;;5113923;28;20427;-64
2021/04/17 04:55:49;;;;;;;10.17;7.63;;;7.40;99.90;;;;;;5113824;28;20172;-67
2021/04/17 04:58:15;;;;;;;21.60;9.37;;;7.40;99.90;;;;;;5114236;28;20256;-64
2021/04/17 05:00:40;;;;;;;24.50;13.40;;;7.50;99.90;;;;;;5113815;28;20270;-67
2021/04/17 05:03:06;;;;;;;23.37;16.43;;;7.50;99.90;;;;;;5114291;28;20196;-67
2021/04/17 05:05:32;;;;;;;8.83;7.10;;;7.60;99.90;;;;;;5095414;28;20220;-67
2021/04/17 05:07:57;;;;;;;12.00;6.37;;;7.60;99.90;;;;;;5114096;28;20548;-66
2021/04/17 05:10:23;;;;;;;9.77;5.43;;;7.50;99.90;;;;;;5113669;28;20183;-67
2021/04/17 05:12:49;;;;;;;13.38;8.32;;;7.40;99.90;;;;;;5113918;28;20672;-65
2021/04/17 05:15:15;;;;;;;10.10;7.30;;;7.50;99.90;;;;;;5113707;28;20210;-66
2021/04/17 05:17:40;;;;;;;9.47;6.50;;;7.60;99.90;;;;;;5113831;28;20187;-68
2021/04/17 05:20:07;;;;;;;14.10;8.10;;;7.70;99.90;;;;;;5113649;28;20183;-66
2021/04/17 05:22:32;;;;;;;9.48;6.72;;;7.80;99.90;;;;;;5113816;28;20180;-65
2021/04/17 05:24:58;;;;;;;7.87;5.90;;;7.80;99.90;;;;;;5113475;28;20606;-67
2021/04/17 05:27:24;;;;;;;68.10;42.07;;;7.80;99.90;;;;;;5113592;28;20537;-64
2021/04/17 05:29:49;;;;;;;17.47;10.30;;;7.90;99.90;;;;;;5113410;28;20773;-68
2021/04/17 05:32:15;;;;;;;10.77;6.77;;;7.90;99.90;;;;;;5113570;28;20175;-66
2021/04/17 05:34:41;;;;;;;12.63;8.37;;;7.90;99.90;;;;;;5112398;28;20200;-66
2021/04/17 05:37:07;;;;;;;12.50;8.57;;;7.90;99.90;;;;;;5113204;28;20757;-67
2021/04/17 05:39:32;;;;;;;10.57;7.07;;;7.90;99.90;;;;;;5111978;28;20290;-67
2021/04/17 05:41:58;;;;;;;8.50;6.93;;;7.90;99.90;;;;;;5113240;28;20174;-66
2021/04/17 05:44:23;;;;;;;10.77;5.67;;;7.90;99.90;;;;;;5113200;28;20198;-66
2021/04/17 05:46:49;;;;;;;9.20;7.40;;;7.90;99.90;;;;;;5113276;28;20204;-69
2021/04/17 05:49:15;;;;;;;11.55;7.47;;;8.00;99.90;;;;;;5094878;28;20223;-65
2021/04/17 05:51:42;;;;;;;10.93;8.00;;;7.90;99.90;;;;;;5092591;28;589546;-65
2021/04/17 05:54:09;;;;;;;11.55;7.03;;;8.10;99.90;;;;;;5113727;28;20526;-68
2021/04/17 05:56:35;;;;;;;9.75;6.93;;;8.10;99.90;;;;;;5113811;28;20660;-65
2021/04/17 05:59:00;;;;;;;11.37;7.50;;;8.10;99.90;;;;;;5095520;28;20225;-67
2021/04/17 06:01:26;;;;;;;9.30;6.10;;;8.20;99.90;;;;;;5113417;28;20319;-65
2021/04/17 06:03:52;;;;;;;7.97;5.07;;;8.20;99.90;;;;;;5113293;28;20206;-68
2021/04/17 06:06:18;;;;;;;7.82;5.40;;;8.50;99.90;;;;;;5111901;28;20227;-69
2021/04/17 06:08:44;;;;;;;9.20;5.97;;;8.60;99.90;;;;;;5113297;28;20188;-68
2021/04/17 06:11:10;;;;;;;12.47;7.60;;;8.50;99.90;;;;;;5095211;28;20183;-68
2021/04/17 06:13:36;;;;;;;10.93;7.00;;;8.50;99.90;;;;;;5113273;28;20192;-68
2021/04/17 06:16:05;;;;;;;12.05;7.32;;;8.40;99.90;;;;;;5113265;28;20404;-66
2021/04/17 06:18:31;;;;;;;13.63;8.32;;;8.30;99.90;;;;;;5095102;28;20215;-66
2021/04/17 06:20:56;;;;;;;6.72;5.13;;;8.30;99.90;;;;;;5113419;28;20720;-66
2021/04/17 06:23:22;;;;;;;10.40;6.67;;;8.30;99.90;;;;;;5113927;28;20223;-66
2021/04/17 06:25:48;;;;;;;10.33;6.80;;;8.40;99.90;;;;;;5113259;28;20575;-67
2021/04/17 06:28:14;;;;;;;15.43;8.40;;;8.70;99.90;;;;;;5113697;28;20198;-68
2021/04/17 06:30:39;;;;;;;12.03;7.53;;;8.70;99.90;;;;;;5113126;28;20176;-69
2021/04/17 06:33:06;;;;;;;12.60;8.27;;;8.70;99.90;;;;;;5113680;28;20203;-68
2021/04/17 06:35:31;;;;;;;9.55;6.68;;;8.80;99.90;;;;;;5113395;28;20176;-66
2021/04/17 06:37:57;;;;;;;11.80;7.30;;;8.90;99.90;;;;;;5095180;28;20207;-69
2021/04/17 06:40:23;;;;;;;11.07;7.05;;;8.90;99.90;;;;;;5095076;28;20259;-66
2021/04/17 06:42:51;;;;;;;8.23;5.80;;;8.90;99.90;;;;;;5113108;28;20220;-68
2021/04/17 06:45:21;;;;;;;13.07;6.97;;;9.00;99.90;;;;;;5113041;28;20756;-66
2021/04/17 06:47:48;;;;;;;13.85;7.45;;;8.90;99.90;;;;;;5116336;28;20195;-66
2021/04/17 06:50:14;;;;;;;9.73;6.88;;;8.90;99.90;;;;;;5116774;28;20214;-66
2021/04/17 06:52:41;;;;;;;12.88;8.40;;;8.90;99.90;;;;;;5116883;28;20180;-68
2021/04/17 06:55:09;;;;;;;11.90;6.03;;;9.10;99.90;;;;;;5116509;28;20167;-68
2021/04/17 06:57:35;;;;;;;8.30;5.68;;;9.00;99.90;;;;;;5116956;28;20184;-66
2021/04/17 07:00:03;;;;;;;12.73;7.97;;;9.00;99.90;;;;;;5116647;28;20164;-69
2021/04/17 07:02:29;;;;;;;11.95;8.68;;;9.20;99.90;;;;;;5116681;28;20184;-68
2021/04/17 07:04:54;;;;;;;16.07;9.63;;;9.10;99.90;;;;;;5116403;28;20184;-69
2021/04/17 07:07:20;;;;;;;12.87;7.83;;;9.20;99.90;;;;;;5116455;28;20669;-66
2021/04/17 07:09:46;;;;;;;11.93;6.77;;;9.30;99.90;;;;;;5116465;28;20178;-68
2021/04/17 07:12:12;;;;;;;13.87;8.10;;;9.30;99.90;;;;;;5116465;28;20182;-69
2021/04/17 07:14:42;;;;;;;12.33;6.73;;;9.40;99.90;;;;;;5116050;28;20209;-68
2021/04/17 07:17:08;;;;;;;14.75;8.88;;;9.70;99.90;;;;;;5116339;28;20749;-68
2021/04/17 07:20:04;;;;;;;11.30;7.30;;;9.80;99.90;;;;;;5116035;28;20241;-69
2021/04/17 07:22:38;;;;;;;18.10;8.15;;;9.60;99.90;;;;;;5116507;28;20175;-66
2021/04/17 07:25:07;;;;;;;12.45;8.70;;;9.80;99.90;;;;;;5097782;28;20179;-66
2021/04/17 07:27:52;;;;;;;13.07;7.35;;;9.60;99.90;;;;;;5116437;28;20252;-65
2021/04/17 07:30:17;;;;;;;11.52;6.68;;;9.90;99.90;;;;;;5116056;28;20168;-67
2021/04/17 07:33:01;;;;;;;10.67;7.57;;;10.00;99.90;;;;;;5116130;28;20554;-68
2021/04/17 07:35:33;;;;;;;10.15;6.20;;;10.10;99.90;;;;;;5116021;28;20607;-68
2021/04/17 07:38:34;;;;;;;10.75;7.30;;;10.10;99.90;;;;;;5115723;28;20196;-67
2021/04/17 07:41:05;;;;;;;14.57;8.18;;;10.40;99.90;;;;;;5065571;28;20183;-68
2021/04/17 07:44:00;;;;;;;9.18;6.95;;;10.50;99.90;;;;;;5115746;28;20184;-69
2021/04/17 07:46:32;;;;;;;9.15;6.40;;;10.40;99.90;;;;;;5115740;28;20265;-66
2021/04/17 07:49:13;;;;;;;10.77;6.80;;;10.90;99.90;;;;;;5097271;28;20203;-69
2021/04/17 07:52:08;;;;;;;15.60;9.07;;;10.50;99.90;;;;;;5115568;28;20236;-69
2021/04/17 07:54:34;;;;;;;11.40;7.13;;;10.40;99.90;;;;;;5115609;28;20187;-68
2021/04/17 07:57:11;;;;;;;12.67;7.50;;;10.40;99.90;;;;;;5115569;28;20270;-68
2021/04/17 07:59:39;;;;;;;13.38;8.80;;;10.60;99.90;;;;;;5096070;28;20192;-65
2021/04/17 08:02:05;;;;;;;11.50;7.22;;;10.80;99.90;;;;;;5115168;28;20200;-66
2021/04/17 08:04:31;;;;;;;14.02;8.40;;;10.90;99.90;;;;;;5115257;28;20192;-66
2021/04/17 08:06:59;;;;;;;14.33;9.17;;;10.40;99.90;;;;;;5115328;28;20571;-68
2021/04/17 08:09:26;;;;;;;14.98;8.35;;;10.40;99.90;;;;;;5115093;28;20852;-68
2021/04/17 08:11:59;;;;;;;15.68;8.90;;;10.30;99.90;;;;;;5115301;28;20187;-68
2021/04/17 08:14:26;;;;;;;12.23;8.07;;;10.60;99.90;;;;;;5096710;28;20442;-65
2021/04/17 08:16:52;;;;;;;13.48;7.82;;;10.60;99.90;;;;;;5115153;28;20206;-68
2021/04/17 08:19:19;;;;;;;14.60;7.55;;;11.10;99.90;;;;;;5115047;28;20561;-65
2021/04/17 08:21:46;;;;;;;11.20;6.97;;;12.50;99.90;;;;;;5115053;28;20176;-65
2021/04/17 08:24:13;;;;;;;14.02;7.03;;;12.00;99.90;;;;;;5096483;28;20567;-66
2021/04/17 08:26:40;;;;;;;16.73;10.27;;;11.30;99.90;;;;;;5114764;28;20284;-67
2021/04/17 08:29:05;;;;;;;13.10;8.40;;;11.00;99.90;;;;;;5114810;28;20195;-71
2021/04/17 08:31:38;;;;;;;17.00;9.77;;;11.10;99.90;;;;;;5114988;28;20282;-67
2021/04/17 08:34:13;;;;;;;19.10;9.45;;;11.00;99.90;;;;;;5114690;28;20184;-67
2021/04/17 08:36:43;;;;;;;9.68;7.38;;;11.30;99.90;;;;;;5115012;28;20576;-67
2021/04/17 08:39:38;;;;;;;11.32;7.72;;;11.30;99.90;;;;;;5114581;28;20203;-70
2021/04/17 08:42:07;;;;;;;11.75;6.40;;;11.10;99.90;;;;;;5114819;28;20182;-67
2021/04/17 08:44:37;;;;;;;10.82;6.93;;;11.00;99.90;;;;;;5114504;28;20283;-70
2021/04/17 08:47:05;;;;;;;10.55;7.63;;;11.30;99.90;;;;;;5114646;28;20672;-70
2021/04/17 08:49:37;;;;;;;8.57;5.87;;;11.00;99.90;;;;;;5096083;28;20661;-65
2021/04/17 08:52:08;;;;;;;11.98;7.13;;;11.10;99.90;;;;;;5096283;28;20990;-68
2021/04/17 08:54:34;;;;;;;7.57;5.32;;;11.00;99.90;;;;;;5114227;28;20191;-65
2021/04/17 08:57:11;;;;;;;7.90;5.50;;;11.10;99.90;;;;;;5114680;28;20595;-65
2021/04/17 08:59:38;;;;;;;11.55;6.20;;;11.20;99.90;;;;;;5114115;28;20431;-65
2021/04/17 09:02:12;;;;;;;9.38;5.15;;;11.20;99.90;;;;;;5114279;28;20262;-65
2021/04/17 09:04:59;;;;;;;8.95;4.85;;;11.40;99.90;;;;;;5114108;28;20554;-65
2021/04/17 09:07:26;;;;;;;8.63;5.80;;;11.30;99.90;;;;;;5114271;28;20572;-64
2021/04/17 09:09:52;;;;;;;8.18;5.30;;;11.30;99.90;;;;;;5095519;28;20199;-66
2021/04/17 09:12:19;;;;;;;7.40;5.13;;;11.40;99.90;;;;;;5114388;28;20724;-68
2021/04/17 09:14:52;;;;;;;8.65;5.63;;;11.40;99.90;;;;;;5113964;28;20237;-69
2021/04/17 09:17:41;;;;;;;12.07;8.05;;;11.10;99.90;;;;;;5114199;28;20219;-66
2021/04/17 09:20:11;;;;;;;9.98;7.53;;;11.20;99.90;;;;;;5095618;28;20229;-66
2021/04/17 09:22:44;;;;;;;19.60;10.68;;;11.30;99.90;;;;;;5114259;28;20263;-66
2021/04/17 09:25:12;;;;;;;9.13;5.30;;;11.40;99.90;;;;;;5113895;28;20236;-66
2021/04/17 09:27:50;;;;;;;11.07;7.00;;;11.40;99.90;;;;;;5095478;28;20222;-67
2021/04/17 09:30:19;;;;;;;7.85;6.00;;;11.30;99.90;;;;;;5113855;28;20224;-66
2021/04/17 09:32:46;;;;;;;9.50;5.73;;;11.50;99.90;;;;;;5114125;28;20555;-67
2021/04/17 09:35:21;;;;;;;11.03;7.50;;;11.70;99.90;;;;;;5113709;28;20408;-68
2021/04/17 09:37:57;;;;;;;7.80;4.90;;;12.00;99.90;;;;;;5114141;28;20438;-66
2021/04/17 09:40:42;;;;;;;7.27;4.70;;;12.10;99.90;;;;;;5113566;28;20386;-69
2021/04/17 09:43:28;;;;;;;7.00;5.60;;;12.10;99.90;;;;;;5113832;28;20532;-69
2021/04/17 09:45:56;;;;;;;6.70;5.33;;;12.20;99.90;;;;;;5113591;28;20462;-70
2021/04/17 09:48:23;;;;;;;8.60;6.80;;;12.30;99.90;;;;;;5095572;28;20447;-66
2021/04/17 09:50:51;;;;;;;8.00;7.17;;;12.10;99.90;;;;;;5113292;28;20465;-69
2021/04/17 09:53:23;;;;;;;11.27;5.23;;;12.30;99.90;;;;;;5113504;28;20523;-66
2021/04/17 09:56:14;;;;;;;10.33;5.93;;;12.60;99.90;;;;;;5113422;28;20739;-67
2021/04/17 09:58:44;;;;;;;13.83;8.17;;;12.20;99.90;;;;;;5113274;28;20435;-69
2021/04/17 10:01:14;;;;;;;11.73;6.03;;;12.10;99.90;;;;;;5095098;28;20506;-66
2021/04/17 10:03:41;;;;;;;10.37;7.07;;;12.00;99.90;;;;;;5116582;28;20454;-69
2021/04/17 10:06:30;;;;;;;9.93;5.07;;;11.70;99.90;;;;;;5128025;28;20456;-65
2021/04/17 10:09:19;;;;;;;11.93;7.57;;;11.90;99.90;;;;;;5133607;28;20431;-66
2021/04/17 10:11:45;;;;;;;8.00;5.47;;;12.30;99.90;;;;;;5133935;28;20407;-68
2021/04/17 10:14:13;;;;;;;9.33;6.27;;;12.20;99.90;;;;;;5132929;28;20414;-68
2021/04/17 10:16:47;;;;;;;13.80;7.93;;;12.50;99.90;;;;;;5132059;28;20479;-67
2021/04/17 10:19:18;;;;;;;13.27;7.07;;;12.60;99.90;;;;;;5133881;28;20497;-66
2021/04/17 10:21:48;;;;;;;8.97;5.93;;;12.60;99.90;;;;;;5135314;27;20403;-66
2021/04/17 10:24:18;;;;;;;8.33;5.93;;;12.40;99.90;;;;;;5137816;27;20754;-66
2021/04/17 10:26:51;;;;;;;7.87;5.77;;;12.50;99.90;;;;;;5137923;27;20565;-66
2021/04/17 10:29:18;;;;;;;7.30;5.37;;;12.60;99.90;;;;;;5137863;27;20407;-69
2021/04/17 10:31:44;;;;;;;9.60;6.33;;;12.40;99.90;;;;;;5138003;27;20930;-69
2021/04/17 10:34:09;;;;;;;13.50;7.70;;;12.20;99.90;;;;;;5137655;27;20422;-66
2021/04/17 10:36:35;;;;;;;13.70;7.23;;;12.20;99.90;;;;;;5137628;27;20908;-66
2021/04/17 10:39:08;;;;;;;11.27;6.67;;;12.30;99.90;;;;;;5137545;27;20671;-69
2021/04/17 10:41:35;;;;;;;10.67;5.93;;;12.10;99.90;;;;;;5119119;27;20186;-67
2021/04/17 10:44:11;;;;;;;10.17;7.80;;;12.10;99.90;;;;;;5137496;27;20414;-67
2021/04/17 10:46:47;;;;;;;8.27;6.80;;;11.70;99.90;;;;;;5118930;27;20472;-65
2021/04/17 10:49:36;;;;;;;9.30;5.80;;;11.70;99.90;;;;;;5137375;27;20414;-68
2021/04/17 10:52:07;;;;;;;9.10;6.23;;;11.80;99.90;;;;;;5137554;27;20484;-69
2021/04/17 10:54:33;;;;;;;14.68;8.75;;;11.90;99.90;;;;;;5137214;27;20419;-68
2021/04/17 10:57:06;;;;;;;12.73;8.43;;;11.90;99.90;;;;;;5118848;27;20541;-69
2021/04/17 10:59:59;;;;;;;11.27;7.40;;;11.80;99.90;;;;;;5137103;27;20434;-66
2021/04/17 11:02:27;;;;;;;11.90;6.80;;;11.90;99.90;;;;;;5136931;27;20459;-70
2021/04/17 11:04:53;;;;;;;8.23;5.87;;;12.00;99.90;;;;;;5118494;27;20419;-68
2021/04/17 11:07:19;;;;;;;12.00;6.47;;;12.00;99.90;;;;;;5136797;27;20474;-69
2021/04/17 11:09:47;;;;;;;10.13;5.93;;;12.10;99.90;;;;;;5136810;27;20395;-69
2021/04/17 11:12:23;;;;;;;11.90;7.60;;;12.20;99.90;;;;;;5137306;27;20472;-66
2021/04/17 11:14:49;;;;;;;11.93;6.70;;;12.10;99.90;;;;;;5136833;27;20379;-68
2021/04/17 11:17:15;;;;;;;8.73;5.80;;;12.30;99.90;;;;;;5137103;27;20426;-69
2021/04/17 11:19:43;;;;;;;12.67;8.17;;;12.30;99.90;;;;;;5118271;27;20195;-70
2021/04/17 11:22:21;;;;;;;14.57;7.40;;;12.40;99.90;;;;;;5137072;27;20171;-66
2021/04/17 11:24:59;;;;;;;10.47;7.00;;;12.50;99.70;;;;;;5136742;27;20403;-69
2021/04/17 11:27:26;;;;;;;14.77;8.20;;;12.50;99.90;;;;;;5117980;27;20520;-69
2021/04/17 11:29:52;;;;;;;9.47;5.90;;;13.00;99.90;;;;;;5118203;27;20415;-67
2021/04/17 11:32:18;;;;;;;14.67;8.00;;;13.20;99.90;;;;;;5136795;27;21075;-69
2021/04/17 11:34:47;;;;;;;10.53;6.27;;;13.00;99.90;;;;;;5118076;27;20439;-69
2021/04/17 11:37:14;;;;;;;11.50;7.47;;;12.70;99.90;;;;;;5136437;27;20818;-66
2021/04/17 11:39:40;;;;;;;11.53;8.00;;;12.90;99.90;;;;;;5136255;27;20929;-68
2021/04/17 11:42:06;;;;;;;9.20;6.53;;;13.00;99.20;;;;;;5122103;27;20960;-66
2021/04/17 11:44:32;;;;;;;12.20;6.57;;;13.10;99.70;;;;;;5115107;28;20278;-66
2021/04/17 11:46:58;;;;;;;11.47;7.80;;;13.20;98.60;;;;;;5116896;27;21012;-68
2021/04/17 11:49:24;;;;;;;9.13;6.70;;;13.10;97.80;;;;;;5115861;27;20571;-70
2021/04/17 11:51:50;;;;;;;10.73;6.13;;;13.20;98.00;;;;;;5115842;28;20472;-66
2021/04/17 11:54:16;;;;;;;10.73;5.97;;;13.00;98.00;;;;;;5115534;28;20416;-66
2021/04/17 11:56:41;;;;;;;11.50;7.17;;;12.90;98.90;;;;;;5115558;28;20176;-69
2021/04/17 11:59:07;;;;;;;15.23;8.60;;;12.80;98.00;;;;;;5115382;28;20204;-69
2021/04/17 12:01:33;;;;;;;9.07;6.87;;;12.90;98.10;;;;;;5097133;28;20649;-65
2021/04/17 12:03:59;;;;;;;9.40;6.80;;;12.90;98.10;;;;;;5115167;28;20192;-69
2021/04/17 12:06:28;;;;;;;11.07;4.57;;;12.80;98.60;;;;;;5118772;27;20810;-65
2021/04/17 12:08:55;;;;;;;9.33;5.30;;;13.80;98.10;;;;;;5113367;28;20198;-68
2021/04/17 12:11:20;;;;;;;10.30;5.50;;;15.00;97.00;;;;;;5123757;27;20518;-67
2021/04/17 12:13:46;;;;;;;11.20;7.10;;;15.60;96.00;;;;;;5135608;27;20447;-66
2021/04/17 12:16:12;;;;;;;12.27;5.60;;;14.30;94.90;;;;;;5135651;27;20167;-66
2021/04/17 12:18:38;;;;;;;8.50;5.67;;;13.50;95.50;;;;;;5135699;27;20190;-65
2021/04/17 12:21:04;;;;;;;14.67;8.23;;;13.30;96.80;;;;;;5135497;27;20388;-66
2021/04/17 12:23:30;;;;;;;9.97;7.10;;;13.30;96.90;;;;;;5131211;27;20565;-66
2021/04/17 12:25:56;;;;;;;11.37;6.70;;;13.30;97.60;;;;;;5135295;27;20210;-67
2021/04/17 12:28:22;;;;;;;9.60;6.10;;;13.30;97.80;;;;;;5135716;27;20191;-70
2021/04/17 12:30:47;;;;;;;10.37;6.10;;;13.20;98.30;;;;;;5115234;27;20464;-71
2021/04/17 12:33:13;;;;;;;8.53;6.67;;;13.30;97.60;;;;;;5113735;28;20688;-70
2021/04/17 12:35:41;;;;;;;10.83;6.97;;;13.40;96.80;;;;;;5114558;28;20159;-70
2021/04/17 12:38:07;;;;;;;12.57;7.33;;;13.40;97.40;;;;;;5096144;28;20510;-67
2021/04/17 12:40:33;;;;;;;15.47;8.20;;;13.30;96.50;;;;;;5096199;28;20503;-68
2021/04/17 12:42:59;;;;;;;12.67;7.23;;;13.40;96.90;;;;;;5114255;28;20440;-67
2021/04/17 12:45:24;;;;;;;10.33;6.73;;;13.40;97.00;;;;;;5113830;28;20393;-70
2021/04/17 12:47:50;;;;;;;11.27;7.50;;;13.30;95.90;;;;;;5114067;28;20286;-70
2021/04/17 12:50:16;;;;;;;12.20;8.03;;;13.20;95.80;;;;;;5112589;28;20666;-68
2021/04/17 12:52:42;;;;;;;11.87;6.17;;;13.10;96.90;;;;;;5114071;27;20742;-67